• Join FlightAware (Why Join?)
  • Login
  • US Flag 
05:01AM EDT


 

Airport Tracker/Info


-or-


 

Live Flight TrackerFlight Track Log ✈ N9334H ✈ 02-May-2013 ✈ KCGS - KLNS

Flight Track Log - Related Links

Times and Time Zones

All times are in EDT time to prevent confusion due to time zone crossing. See the N9334H flight status page for this flight to view local times or setup timezone preferences in your user account.

Time Position Orientation Groundspeed Altitude Reporting Facility
EDT Latitude Longitude Course Direction KTS MPH feet Rate Location/Type
08:37AM 39.0000 -76.9333 270° West 80 92 900  Level Potomac TRACON
08:38AM 39.0000 -76.9667 270° West 95 109 1,700 780 Climbing Potomac TRACON
08:39AM 39.0000 -77.0000 270° West 94 108 2,500 780 Climbing Potomac TRACON
08:40AM 39.0167 -77.0167 322° Northwest 92 106 3,200 720 Climbing Potomac TRACON
08:41AM 39.0500 -77.0000 21° North 80 92 3,900 660 Climbing Potomac TRACON
08:42AM 39.0667 -77.0000 360° North 81 93 4,500 540 Climbing Potomac TRACON
08:43AM 39.0833 -76.9833 38° Northeast 82 94 5,000 300 Climbing Potomac TRACON
08:44AM 39.1000 -76.9667 38° Northeast 106 122 5,100  Climbing Potomac TRACON
08:45AM 39.1333 -76.9500 21° North 109 125 5,100  Level Potomac TRACON
08:46AM 39.1667 -76.9500 360° North 112 129 5,100 -60 Level Potomac TRACON
08:47AM 39.2000 -76.9500 360° North 117 135 5,000 -60 Descending Potomac TRACON
08:47AM 39.2167 -76.9500 360° North 116 133 5,000  Level Potomac TRACON
08:48AM 39.2500 -76.9667 339° North 112 129 5,000  Level Potomac TRACON
08:49AM 39.2833 -76.9667 360° North 111 128 5,000  Level Potomac TRACON
08:50AM 39.3167 -76.9500 21° North 111 128 5,000  Level Potomac TRACON
08:51AM 39.3333 -76.9333 38° Northeast 103 119 5,000  Level Potomac TRACON
08:52AM 39.3667 -76.9167 21° North 105 121 5,100  Climbing Potomac TRACON
08:53AM 39.3833 -76.9000 38° Northeast 105 121 5,000 -60 Descending Potomac TRACON
08:54AM 39.4000 -76.8833 38° Northeast 104 120 5,000  Level Potomac TRACON
08:55AM 39.4333 -76.8667 21° North 105 121 5,000  Level Potomac TRACON
08:56AM 39.4500 -76.8500 38° Northeast 105 121 5,000  Level Potomac TRACON
08:57AM 39.4833 -76.8167 38° Northeast 107 123 5,000  Level Potomac TRACON
08:58AM 39.5000 -76.8000 38° Northeast 106 122 5,000  Level Potomac TRACON
08:59AM 39.5333 -76.7833 21° North 105 121 5,000  Level Potomac TRACON
09:00AM 39.5500 -76.7667 38° Northeast 107 123 5,000  Level Potomac TRACON
09:01AM 39.5833 -76.7500 21° North 106 122 5,000  Level Potomac TRACON
09:02AM 39.6000 -76.7167 57° Northeast 106 122 5,000  Level Potomac TRACON
09:03AM 39.6333 -76.7000 21° North 107 123 5,000  Level Potomac TRACON
09:04AM 39.6500 -76.6833 38° Northeast 108 124 5,000  Level Potomac TRACON
09:05AM 39.6833 -76.6667 21° North 106 122 5,000  Level Potomac TRACON
09:07AM 39.7173 -76.6359 35° Northeast  Level FlightAware Approximate
09:14AM 39.8875 -76.4827 33° Northeast  Level FlightAware Approximate
09:15AM 39.9123 -76.4620 33° Northeast  Level FlightAware Approximate
09:16AM 39.9372 -76.4412 33° Northeast  Level FlightAware Approximate
09:17AM 39.9621 -76.4204 33° Northeast  Level FlightAware Approximate
09:18AM 39.9892 -76.4054 21° North  Level FlightAware Approximate
09:19AM 40.0143 -76.3857 37° Northeast  Level FlightAware Approximate
09:20AM 40.0385 -76.3641 21° North  Level FlightAware Approximate
09:21AM 40.0661 -76.3503 21° North  Level FlightAware Approximate
09:22AM 40.0870 -76.3230 46° Northeast  Level FlightAware Approximate
09:23AM 40.1076 -76.2954 46° Northeast  Level FlightAware Approximate
09:24AM 40.1167 -76.2833 46° Northeast  Level FlightAware Approximate
09:25AM 40.1224 -76.2944 46° Northeast  Level Estimated
09:26AM 40.1224 -76.2944 46° Northeast  Level Estimated
09:27AM 40.1224 -76.2944 46° Northeast  Level Estimated
09:28AM 40.1224 -76.2944 46° Northeast  Level Estimated
09:29AM 40.1224 -76.2944 46° Northeast  Level Estimated
09:30AM 40.1224 -76.2944 46° Northeast  Level Estimated
09:31AM 40.1224 -76.2944 46° Northeast  Level Estimated